sensor_id;sensor_type;location;lat;lon;timestamp;temperature;humidity
58409;DHT22;44202;52.730;6.470;2022-09-01T00:00:47;14.20;99.90
58409;DHT22;44202;52.730;6.470;2022-09-01T00:03:16;14.10;99.90
58409;DHT22;44202;52.730;6.470;2022-09-01T00:05:42;14.10;99.90
58409;DHT22;44202;52.730;6.470;2022-09-01T00:08:12;14.10;99.90
58409;DHT22;44202;52.730;6.470;2022-09-01T00:10:38;14.10;99.90
58409;DHT22;44202;52.730;6.470;2022-09-01T00:13:05;14.00;99.90
58409;DHT22;44202;52.730;6.470;2022-09-01T00:15:33;14.00;99.90
58409;DHT22;44202;52.730;6.470;2022-09-01T00:17:58;14.00;99.90
58409;DHT22;44202;52.730;6.470;2022-09-01T00:20:24;14.00;99.90
58409;DHT22;44202;52.730;6.470;2022-09-01T00:22:50;14.00;99.90
58409;DHT22;44202;52.730;6.470;2022-09-01T00:25:17;13.90;99.90
58409;DHT22;44202;52.730;6.470;2022-09-01T00:27:45;13.90;99.90
58409;DHT22;44202;52.730;6.470;2022-09-01T00:30:12;14.00;99.90
58409;DHT22;44202;52.730;6.470;2022-09-01T00:32:38;13.90;99.90
58409;DHT22;44202;52.730;6.470;2022-09-01T00:35:04;13.90;99.90
58409;DHT22;44202;52.730;6.470;2022-09-01T00:37:30;13.90;99.90
58409;DHT22;44202;52.730;6.470;2022-09-01T00:39:56;13.80;99.90
58409;DHT22;44202;52.730;6.470;2022-09-01T00:42:22;13.80;99.90
58409;DHT22;44202;52.730;6.470;2022-09-01T00:44:48;13.80;99.90
58409;DHT22;44202;52.730;6.470;2022-09-01T00:47:14;13.70;99.90
58409;DHT22;44202;52.730;6.470;2022-09-01T00:49:47;13.70;99.90
58409;DHT22;44202;52.730;6.470;2022-09-01T00:52:30;13.70;99.90
58409;DHT22;44202;52.730;6.470;2022-09-01T00:57:46;13.60;99.90
58409;DHT22;44202;52.730;6.470;2022-09-01T01:00:16;13.60;99.90
58409;DHT22;44202;52.730;6.470;2022-09-01T01:02:43;13.60;99.90
58409;DHT22;44202;52.730;6.470;2022-09-01T01:05:10;13.50;99.90
58409;DHT22;44202;52.730;6.470;2022-09-01T01:07:36;13.40;99.90
58409;DHT22;44202;52.730;6.470;2022-09-01T01:10:05;13.50;99.90
58409;DHT22;44202;52.730;6.470;2022-09-01T01:12:32;13.50;99.90
58409;DHT22;44202;52.730;6.470;2022-09-01T01:14:57;13.50;99.90
58409;DHT22;44202;52.730;6.470;2022-09-01T01:17:24;13.50;99.90
58409;DHT22;44202;52.730;6.470;2022-09-01T01:19:54;13.50;99.90
58409;DHT22;44202;52.730;6.470;2022-09-01T01:25:54;13.40;99.90
58409;DHT22;44202;52.730;6.470;2022-09-01T01:28:27;13.40;99.90
58409;DHT22;44202;52.730;6.470;2022-09-01T01:31:13;13.30;99.90
58409;DHT22;44202;52.730;6.470;2022-09-01T01:33:57;13.30;99.90
58409;DHT22;44202;52.730;6.470;2022-09-01T01:36:28;13.30;99.90
58409;DHT22;44202;52.730;6.470;2022-09-01T01:39:08;13.20;99.90
58409;DHT22;44202;52.730;6.470;2022-09-01T01:41:35;13.20;99.90
58409;DHT22;44202;52.730;6.470;2022-09-01T01:44:03;13.20;99.90
58409;DHT22;44202;52.730;6.470;2022-09-01T01:46:31;13.10;99.90
58409;DHT22;44202;52.730;6.470;2022-09-01T01:48:58;13.10;99.90
58409;DHT22;44202;52.730;6.470;2022-09-01T01:51:27;13.00;99.90
58409;DHT22;44202;52.730;6.470;2022-09-01T01:53:56;13.00;99.90
58409;DHT22;44202;52.730;6.470;2022-09-01T01:56:24;13.00;99.90
58409;DHT22;44202;52.730;6.470;2022-09-01T01:58:54;12.90;99.90
58409;DHT22;44202;52.730;6.470;2022-09-01T02:01:26;12.90;99.90
58409;DHT22;44202;52.730;6.470;2022-09-01T02:03:55;12.90;99.90
58409;DHT22;44202;52.730;6.470;2022-09-01T02:06:22;12.80;99.90
58409;DHT22;44202;52.730;6.470;2022-09-01T02:08:54;12.70;99.90
58409;DHT22;44202;52.730;6.470;2022-09-01T02:11:26;12.80;99.90
58409;DHT22;44202;52.730;6.470;2022-09-01T02:13:53;12.70;99.90
58409;DHT22;44202;52.730;6.470;2022-09-01T02:16:22;12.70;99.90
58409;DHT22;44202;52.730;6.470;2022-09-01T02:18:48;12.70;99.90
58409;DHT22;44202;52.730;6.470;2022-09-01T02:21:18;12.70;99.90
58409;DHT22;44202;52.730;6.470;2022-09-01T02:23:51;12.60;99.90
58409;DHT22;44202;52.730;6.470;2022-09-01T02:26:31;12.60;99.90
58409;DHT22;44202;52.730;6.470;2022-09-01T02:28:59;12.60;99.90
58409;DHT22;44202;52.730;6.470;2022-09-01T02:31:30;12.60;99.90
58409;DHT22;44202;52.730;6.470;2022-09-01T02:33:57;12.50;99.90
58409;DHT22;44202;52.730;6.470;2022-09-01T02:36:23;12.50;99.90
58409;DHT22;44202;52.730;6.470;2022-09-01T02:38:50;12.50;99.90
58409;DHT22;44202;52.730;6.470;2022-09-01T02:41:16;12.50;99.90
58409;DHT22;44202;52.730;6.470;2022-09-01T02:43:46;12.40;99.90
58409;DHT22;44202;52.730;6.470;2022-09-01T02:46:12;12.40;99.90
58409;DHT22;44202;52.730;6.470;2022-09-01T02:48:41;12.40;99.90
58409;DHT22;44202;52.730;6.470;2022-09-01T02:51:10;12.40;99.90
58409;DHT22;44202;52.730;6.470;2022-09-01T02:53:37;12.30;99.90
58409;DHT22;44202;52.730;6.470;2022-09-01T02:56:05;12.30;99.90
58409;DHT22;44202;52.730;6.470;2022-09-01T02:58:34;12.20;99.90
58409;DHT22;44202;52.730;6.470;2022-09-01T03:01:23;12.20;99.90
58409;DHT22;44202;52.730;6.470;2022-09-01T03:03:56;12.10;99.90
58409;DHT22;44202;52.730;6.470;2022-09-01T03:06:22;12.10;99.90
58409;DHT22;44202;52.730;6.470;2022-09-01T03:08:53;12.10;99.90
58409;DHT22;44202;52.730;6.470;2022-09-01T03:11:20;12.10;99.90
58409;DHT22;44202;52.730;6.470;2022-09-01T03:13:46;12.00;99.90
58409;DHT22;44202;52.730;6.470;2022-09-01T03:16:12;12.00;99.90
58409;DHT22;44202;52.730;6.470;2022-09-01T03:18:38;12.00;99.90
58409;DHT22;44202;52.730;6.470;2022-09-01T03:21:05;12.00;99.90
58409;DHT22;44202;52.730;6.470;2022-09-01T03:23:31;11.90;99.90
58409;DHT22;44202;52.730;6.470;2022-09-01T03:25:58;12.00;99.90
58409;DHT22;44202;52.730;6.470;2022-09-01T03:28:24;12.00;99.90
58409;DHT22;44202;52.730;6.470;2022-09-01T03:30:52;11.90;99.90
58409;DHT22;44202;52.730;6.470;2022-09-01T03:33:20;11.80;99.90
58409;DHT22;44202;52.730;6.470;2022-09-01T03:35:46;11.80;99.90
58409;DHT22;44202;52.730;6.470;2022-09-01T03:38:13;11.80;99.90
58409;DHT22;44202;52.730;6.470;2022-09-01T03:40:45;11.80;99.90
58409;DHT22;44202;52.730;6.470;2022-09-01T03:43:12;11.70;99.90
58409;DHT22;44202;52.730;6.470;2022-09-01T03:45:39;11.70;99.90
58409;DHT22;44202;52.730;6.470;2022-09-01T03:48:06;11.70;99.90
58409;DHT22;44202;52.730;6.470;2022-09-01T03:50:36;11.60;99.90
58409;DHT22;44202;52.730;6.470;2022-09-01T03:53:06;11.60;99.90
58409;DHT22;44202;52.730;6.470;2022-09-01T03:55:34;11.60;99.90
58409;DHT22;44202;52.730;6.470;2022-09-01T03:58:08;11.60;99.90
58409;DHT22;44202;52.730;6.470;2022-09-01T04:00:38;11.60;99.90
58409;DHT22;44202;52.730;6.470;2022-09-01T04:03:06;11.60;99.90
58409;DHT22;44202;52.730;6.470;2022-09-01T04:05:34;11.70;99.90
58409;DHT22;44202;52.730;6.470;2022-09-01T04:08:05;11.70;99.90
58409;DHT22;44202;52.730;6.470;2022-09-01T04:10:34;11.70;99.90
58409;DHT22;44202;52.730;6.470;2022-09-01T04:13:00;11.60;99.90
58409;DHT22;44202;52.730;6.470;2022-09-01T04:15:27;11.60;99.90
58409;DHT22;44202;52.730;6.470;2022-09-01T04:17:53;11.60;99.90
58409;DHT22;44202;52.730;6.470;2022-09-01T04:20:39;11.60;99.90
58409;DHT22;44202;52.730;6.470;2022-09-01T04:23:20;11.60;99.90
58409;DHT22;44202;52.730;6.470;2022-09-01T04:25:48;11.60;99.90
58409;DHT22;44202;52.730;6.470;2022-09-01T04:28:19;11.60;99.90
58409;DHT22;44202;52.730;6.470;2022-09-01T04:30:56;11.60;99.90
58409;DHT22;44202;52.730;6.470;2022-09-01T04:33:26;11.50;99.90
58409;DHT22;44202;52.730;6.470;2022-09-01T04:36:02;11.50;99.90
58409;DHT22;44202;52.730;6.470;2022-09-01T04:38:28;11.50;99.90
58409;DHT22;44202;52.730;6.470;2022-09-01T04:40:55;11.50;99.90
58409;DHT22;44202;52.730;6.470;2022-09-01T04:43:24;11.60;99.90
58409;DHT22;44202;52.730;6.470;2022-09-01T04:45:51;11.60;99.90
58409;DHT22;44202;52.730;6.470;2022-09-01T04:48:19;11.40;99.90
58409;DHT22;44202;52.730;6.470;2022-09-01T04:50:47;11.40;99.90
58409;DHT22;44202;52.730;6.470;2022-09-01T04:53:14;11.40;99.90
58409;DHT22;44202;52.730;6.470;2022-09-01T04:55:41;11.40;99.90
58409;DHT22;44202;52.730;6.470;2022-09-01T04:58:10;11.40;99.90
58409;DHT22;44202;52.730;6.470;2022-09-01T05:00:38;11.50;99.90
58409;DHT22;44202;52.730;6.470;2022-09-01T05:03:05;11.40;99.90
58409;DHT22;44202;52.730;6.470;2022-09-01T05:05:42;11.40;99.90
58409;DHT22;44202;52.730;6.470;2022-09-01T05:08:15;11.50;99.90
58409;DHT22;44202;52.730;6.470;2022-09-01T05:10:47;11.40;99.90
58409;DHT22;44202;52.730;6.470;2022-09-01T05:13:20;11.40;99.90
58409;DHT22;44202;52.730;6.470;2022-09-01T05:15:57;11.40;99.90
58409;DHT22;44202;52.730;6.470;2022-09-01T05:18:24;11.40;99.90
58409;DHT22;44202;52.730;6.470;2022-09-01T05:20:51;11.40;99.90
58409;DHT22;44202;52.730;6.470;2022-09-01T05:23:18;11.60;99.90
58409;DHT22;44202;52.730;6.470;2022-09-01T05:25:47;11.50;99.90
58409;DHT22;44202;52.730;6.470;2022-09-01T05:28:17;11.60;99.90
58409;DHT22;44202;52.730;6.470;2022-09-01T05:30:46;11.60;99.90
58409;DHT22;44202;52.730;6.470;2022-09-01T05:33:13;11.60;99.90
58409;DHT22;44202;52.730;6.470;2022-09-01T05:35:53;11.60;99.90
58409;DHT22;44202;52.730;6.470;2022-09-01T05:38:20;11.70;99.90
58409;DHT22;44202;52.730;6.470;2022-09-01T05:40:58;11.90;99.90
58409;DHT22;44202;52.730;6.470;2022-09-01T05:43:27;11.90;99.90
58409;DHT22;44202;52.730;6.470;2022-09-01T05:45:58;11.90;99.90
58409;DHT22;44202;52.730;6.470;2022-09-01T05:48:25;12.00;99.90
58409;DHT22;44202;52.730;6.470;2022-09-01T05:50:53;12.10;99.90
58409;DHT22;44202;52.730;6.470;2022-09-01T05:53:26;12.10;99.90
58409;DHT22;44202;52.730;6.470;2022-09-01T05:55:53;12.20;99.90
58409;DHT22;44202;52.730;6.470;2022-09-01T05:58:23;12.30;99.90
58409;DHT22;44202;52.730;6.470;2022-09-01T06:00:51;12.40;99.90
58409;DHT22;44202;52.730;6.470;2022-09-01T06:03:21;12.40;99.90
58409;DHT22;44202;52.730;6.470;2022-09-01T06:05:49;12.50;99.90
58409;DHT22;44202;52.730;6.470;2022-09-01T06:08:20;12.60;99.90
58409;DHT22;44202;52.730;6.470;2022-09-01T06:10:46;12.70;99.90
58409;DHT22;44202;52.730;6.470;2022-09-01T06:13:15;12.80;99.90
58409;DHT22;44202;52.730;6.470;2022-09-01T06:15:42;12.90;99.90
58409;DHT22;44202;52.730;6.470;2022-09-01T06:18:12;13.00;99.90
58409;DHT22;44202;52.730;6.470;2022-09-01T06:20:43;13.10;99.90
58409;DHT22;44202;52.730;6.470;2022-09-01T06:23:10;13.20;99.90
58409;DHT22;44202;52.730;6.470;2022-09-01T06:25:40;13.30;99.90
58409;DHT22;44202;52.730;6.470;2022-09-01T06:28:07;13.40;99.90
58409;DHT22;44202;52.730;6.470;2022-09-01T06:30:36;13.50;99.90
58409;DHT22;44202;52.730;6.470;2022-09-01T06:33:03;13.50;99.90
58409;DHT22;44202;52.730;6.470;2022-09-01T06:35:40;13.60;99.90
58409;DHT22;44202;52.730;6.470;2022-09-01T06:38:08;13.70;99.90
58409;DHT22;44202;52.730;6.470;2022-09-01T06:40:34;13.80;99.90
58409;DHT22;44202;52.730;6.470;2022-09-01T06:43:01;13.90;99.90
58409;DHT22;44202;52.730;6.470;2022-09-01T06:45:33;14.00;99.90
58409;DHT22;44202;52.730;6.470;2022-09-01T06:47:59;14.10;99.90
58409;DHT22;44202;52.730;6.470;2022-09-01T06:50:28;14.20;99.90
58409;DHT22;44202;52.730;6.470;2022-09-01T06:52:54;14.30;99.90
58409;DHT22;44202;52.730;6.470;2022-09-01T06:55:35;14.40;99.90
58409;DHT22;44202;52.730;6.470;2022-09-01T06:58:03;14.50;99.90
58409;DHT22;44202;52.730;6.470;2022-09-01T07:00:35;14.60;99.90
58409;DHT22;44202;52.730;6.470;2022-09-01T07:03:12;14.70;99.90
58409;DHT22;44202;52.730;6.470;2022-09-01T07:05:43;14.80;99.90
58409;DHT22;44202;52.730;6.470;2022-09-01T07:08:12;14.90;99.90
58409;DHT22;44202;52.730;6.470;2022-09-01T07:10:45;15.00;99.90
58409;DHT22;44202;52.730;6.470;2022-09-01T07:13:20;15.10;99.90
58409;DHT22;44202;52.730;6.470;2022-09-01T07:15:52;15.20;99.90
58409;DHT22;44202;52.730;6.470;2022-09-01T07:18:24;15.30;99.90
58409;DHT22;44202;52.730;6.470;2022-09-01T07:20:50;15.40;99.90
58409;DHT22;44202;52.730;6.470;2022-09-01T07:23:18;15.50;99.90
58409;DHT22;44202;52.730;6.470;2022-09-01T07:25:47;15.70;99.90
58409;DHT22;44202;52.730;6.470;2022-09-01T07:28:14;15.80;99.90
58409;DHT22;44202;52.730;6.470;2022-09-01T07:30:50;15.80;99.90
58409;DHT22;44202;52.730;6.470;2022-09-01T07:33:19;15.90;99.90
58409;DHT22;44202;52.730;6.470;2022-09-01T07:35:50;16.00;99.90
58409;DHT22;44202;52.730;6.470;2022-09-01T07:38:21;16.20;99.90
58409;DHT22;44202;52.730;6.470;2022-09-01T07:40:47;16.30;99.90
58409;DHT22;44202;52.730;6.470;2022-09-01T07:43:22;16.50;99.90
58409;DHT22;44202;52.730;6.470;2022-09-01T07:45:54;16.60;99.90
58409;DHT22;44202;52.730;6.470;2022-09-01T07:48:23;16.70;99.90
58409;DHT22;44202;52.730;6.470;2022-09-01T07:50:51;16.80;99.90
58409;DHT22;44202;52.730;6.470;2022-09-01T07:53:20;16.90;99.90
58409;DHT22;44202;52.730;6.470;2022-09-01T07:55:47;17.00;99.90
58409;DHT22;44202;52.730;6.470;2022-09-01T07:58:18;17.20;99.90
58409;DHT22;44202;52.730;6.470;2022-09-01T08:00:44;17.30;99.90
58409;DHT22;44202;52.730;6.470;2022-09-01T08:03:13;17.40;99.90
58409;DHT22;44202;52.730;6.470;2022-09-01T08:05:39;17.50;99.90
58409;DHT22;44202;52.730;6.470;2022-09-01T08:08:05;17.70;99.90
58409;DHT22;44202;52.730;6.470;2022-09-01T08:10:31;17.80;99.90
58409;DHT22;44202;52.730;6.470;2022-09-01T08:12:57;18.00;99.90
58409;DHT22;44202;52.730;6.470;2022-09-01T08:15:23;18.10;99.90
58409;DHT22;44202;52.730;6.470;2022-09-01T08:17:50;18.20;99.90
58409;DHT22;44202;52.730;6.470;2022-09-01T08:20:15;18.40;99.90
58409;DHT22;44202;52.730;6.470;2022-09-01T08:22:41;18.50;99.90
58409;DHT22;44202;52.730;6.470;2022-09-01T08:25:08;18.60;99.90
58409;DHT22;44202;52.730;6.470;2022-09-01T08:27:35;18.70;99.90
58409;DHT22;44202;52.730;6.470;2022-09-01T08:30:05;18.90;99.90
58409;DHT22;44202;52.730;6.470;2022-09-01T08:32:36;19.00;99.90
58409;DHT22;44202;52.730;6.470;2022-09-01T08:35:02;19.10;99.90
58409;DHT22;44202;52.730;6.470;2022-09-01T08:37:29;19.30;99.90
58409;DHT22;44202;52.730;6.470;2022-09-01T08:39:56;19.50;99.90
58409;DHT22;44202;52.730;6.470;2022-09-01T08:47:45;20.10;99.90
58409;DHT22;44202;52.730;6.470;2022-09-01T08:50:13;20.30;99.90
58409;DHT22;44202;52.730;6.470;2022-09-01T08:52:43;20.70;99.90
58409;DHT22;44202;52.730;6.470;2022-09-01T08:55:27;21.40;99.90
58409;DHT22;44202;52.730;6.470;2022-09-01T08:57:56;22.30;99.90
58409;DHT22;44202;52.730;6.470;2022-09-01T09:00:28;23.30;93.90
58409;DHT22;44202;52.730;6.470;2022-09-01T09:08:51;25.40;75.40
58409;DHT22;44202;52.730;6.470;2022-09-01T09:16:41;26.90;62.70
58409;DHT22;44202;52.730;6.470;2022-09-01T09:19:15;27.10;61.70
58409;DHT22;44202;52.730;6.470;2022-09-01T09:21:47;27.30;60.00
58409;DHT22;44202;52.730;6.470;2022-09-01T09:29:59;28.00;57.20
58409;DHT22;44202;52.730;6.470;2022-09-01T09:32:53;28.30;56.10
58409;DHT22;44202;52.730;6.470;2022-09-01T09:35:39;28.70;53.20
58409;DHT22;44202;52.730;6.470;2022-09-01T09:44:15;29.90;52.30
58409;DHT22;44202;52.730;6.470;2022-09-01T09:46:40;30.30;51.40
58409;DHT22;44202;52.730;6.470;2022-09-01T09:49:12;30.70;49.80
58409;DHT22;44202;52.730;6.470;2022-09-01T09:51:41;31.60;51.20
58409;DHT22;44202;52.730;6.470;2022-09-01T09:54:11;32.00;49.00
58409;DHT22;44202;52.730;6.470;2022-09-01T09:56:38;32.30;46.80
58409;DHT22;44202;52.730;6.470;2022-09-01T09:59:27;32.30;45.80
58409;DHT22;44202;52.730;6.470;2022-09-01T10:01:58;32.40;45.60
58409;DHT22;44202;52.730;6.470;2022-09-01T10:04:57;32.70;45.10
58409;DHT22;44202;52.730;6.470;2022-09-01T10:07:35;33.10;44.60
58409;DHT22;44202;52.730;6.470;2022-09-01T10:10:06;32.80;43.60
58409;DHT22;44202;52.730;6.470;2022-09-01T10:12:33;32.30;44.20
58409;DHT22;44202;52.730;6.470;2022-09-01T10:15:06;31.90;44.70
58409;DHT22;44202;52.730;6.470;2022-09-01T10:17:37;31.40;44.60
58409;DHT22;44202;52.730;6.470;2022-09-01T10:20:05;30.90;45.50
58409;DHT22;44202;52.730;6.470;2022-09-01T10:22:34;30.70;45.60
58409;DHT22;44202;52.730;6.470;2022-09-01T10:25:00;30.40;46.20
58409;DHT22;44202;52.730;6.470;2022-09-01T10:27:30;30.50;46.90
58409;DHT22;44202;52.730;6.470;2022-09-01T10:32:48;31.10;45.70
58409;DHT22;44202;52.730;6.470;2022-09-01T10:35:21;31.20;45.10
58409;DHT22;44202;52.730;6.470;2022-09-01T10:37:49;31.20;45.20
58409;DHT22;44202;52.730;6.470;2022-09-01T10:43:00;32.30;42.60
58409;DHT22;44202;52.730;6.470;2022-09-01T10:45:46;31.40;43.40
58409;DHT22;44202;52.730;6.470;2022-09-01T10:50:53;32.00;43.10
58409;DHT22;44202;52.730;6.470;2022-09-01T10:53:43;32.70;42.30
58409;DHT22;44202;52.730;6.470;2022-09-01T10:56:43;33.30;41.60
58409;DHT22;44202;52.730;6.470;2022-09-01T11:12:12;31.90;42.70
58409;DHT22;44202;52.730;6.470;2022-09-01T11:20:05;31.10;41.80
58409;DHT22;44202;52.730;6.470;2022-09-01T11:25:45;28.90;43.80
58409;DHT22;44202;52.730;6.470;2022-09-01T11:34:01;28.10;45.20
58409;DHT22;44202;52.730;6.470;2022-09-01T11:36:32;28.40;46.70
58409;DHT22;44202;52.730;6.470;2022-09-01T11:42:04;27.50;45.70
58409;DHT22;44202;52.730;6.470;2022-09-01T11:52:25;25.10;49.50
58409;DHT22;44202;52.730;6.470;2022-09-01T11:54:52;24.50;50.40
58409;DHT22;44202;52.730;6.470;2022-09-01T11:57:28;24.90;51.00
58409;DHT22;44202;52.730;6.470;2022-09-01T11:59:56;26.20;50.10
58409;DHT22;44202;52.730;6.470;2022-09-01T12:02:29;27.30;47.90
58409;DHT22;44202;52.730;6.470;2022-09-01T12:04:58;28.30;47.30
58409;DHT22;44202;52.730;6.470;2022-09-01T12:07:43;29.40;45.40
58409;DHT22;44202;52.730;6.470;2022-09-01T12:10:16;30.10;44.00
58409;DHT22;44202;52.730;6.470;2022-09-01T12:12:44;29.70;43.40
58409;DHT22;44202;52.730;6.470;2022-09-01T12:15:24;28.40;44.50
58409;DHT22;44202;52.730;6.470;2022-09-01T12:17:51;27.10;45.50
58409;DHT22;44202;52.730;6.470;2022-09-01T12:20:24;26.10;48.30
58409;DHT22;44202;52.730;6.470;2022-09-01T12:22:50;25.60;50.60
58409;DHT22;44202;52.730;6.470;2022-09-01T12:25:21;26.00;49.90
58409;DHT22;44202;52.730;6.470;2022-09-01T12:27:48;25.90;49.00
58409;DHT22;44202;52.730;6.470;2022-09-01T12:30:14;25.60;49.20
58409;DHT22;44202;52.730;6.470;2022-09-01T12:32:40;25.20;49.10
58409;DHT22;44202;52.730;6.470;2022-09-01T12:35:18;25.20;49.20
58409;DHT22;44202;52.730;6.470;2022-09-01T12:37:44;25.10;49.20
58409;DHT22;44202;52.730;6.470;2022-09-01T12:40:30;24.80;49.70
58409;DHT22;44202;52.730;6.470;2022-09-01T12:42:56;24.50;50.00
58409;DHT22;44202;52.730;6.470;2022-09-01T12:45:43;24.50;50.50
58409;DHT22;44202;52.730;6.470;2022-09-01T12:48:30;24.90;50.60
58409;DHT22;44202;52.730;6.470;2022-09-01T12:51:14;25.00;50.50
58409;DHT22;44202;52.730;6.470;2022-09-01T12:53:54;24.90;50.10
58409;DHT22;44202;52.730;6.470;2022-09-01T12:59:08;24.30;51.50
58409;DHT22;44202;52.730;6.470;2022-09-01T13:01:35;24.30;51.20
58409;DHT22;44202;52.730;6.470;2022-09-01T13:06:48;24.50;50.80
58409;DHT22;44202;52.730;6.470;2022-09-01T13:09:14;24.60;50.30
58409;DHT22;44202;52.730;6.470;2022-09-01T13:11:40;24.40;50.40
58409;DHT22;44202;52.730;6.470;2022-09-01T13:14:07;24.20;50.50
58409;DHT22;44202;52.730;6.470;2022-09-01T13:16:34;23.90;51.20
58409;DHT22;44202;52.730;6.470;2022-09-01T13:19:01;23.90;51.20
58409;DHT22;44202;52.730;6.470;2022-09-01T13:21:27;24.00;51.40
58409;DHT22;44202;52.730;6.470;2022-09-01T13:23:53;24.20;51.30
58409;DHT22;44202;52.730;6.470;2022-09-01T13:26:19;24.40;51.50
58409;DHT22;44202;52.730;6.470;2022-09-01T13:28:44;24.50;50.30
58409;DHT22;44202;52.730;6.470;2022-09-01T13:31:10;24.30;50.50
58409;DHT22;44202;52.730;6.470;2022-09-01T13:33:40;24.10;51.20
58409;DHT22;44202;52.730;6.470;2022-09-01T13:36:06;24.00;52.10
58409;DHT22;44202;52.730;6.470;2022-09-01T13:38:32;24.10;51.90
58409;DHT22;44202;52.730;6.470;2022-09-01T13:40:58;24.20;52.00
58409;DHT22;44202;52.730;6.470;2022-09-01T13:43:26;24.30;52.10
58409;DHT22;44202;52.730;6.470;2022-09-01T13:45:52;24.40;52.20
58409;DHT22;44202;52.730;6.470;2022-09-01T13:48:18;24.60;51.00
58409;DHT22;44202;52.730;6.470;2022-09-01T13:50:45;24.80;50.70
58409;DHT22;44202;52.730;6.470;2022-09-01T13:53:11;25.00;49.80
58409;DHT22;44202;52.730;6.470;2022-09-01T13:55:38;25.10;49.50
58409;DHT22;44202;52.730;6.470;2022-09-01T13:58:04;25.10;50.10
58409;DHT22;44202;52.730;6.470;2022-09-01T14:00:34;25.30;50.90
58409;DHT22;44202;52.730;6.470;2022-09-01T14:03:04;25.30;50.70
58409;DHT22;44202;52.730;6.470;2022-09-01T14:05:34;25.20;50.20
58409;DHT22;44202;52.730;6.470;2022-09-01T14:08:00;25.10;50.70
58409;DHT22;44202;52.730;6.470;2022-09-01T14:10:28;24.90;49.60
58409;DHT22;44202;52.730;6.470;2022-09-01T14:12:55;24.50;49.50
58409;DHT22;44202;52.730;6.470;2022-09-01T14:15:21;24.20;50.40
58409;DHT22;44202;52.730;6.470;2022-09-01T14:17:49;24.00;50.50
58409;DHT22;44202;52.730;6.470;2022-09-01T14:20:21;24.10;50.50
58409;DHT22;44202;52.730;6.470;2022-09-01T14:22:48;24.20;50.10
58409;DHT22;44202;52.730;6.470;2022-09-01T14:25:16;24.40;51.00
58409;DHT22;44202;52.730;6.470;2022-09-01T14:27:43;24.50;50.90
58409;DHT22;44202;52.730;6.470;2022-09-01T14:30:14;24.70;50.80
58409;DHT22;44202;52.730;6.470;2022-09-01T14:32:40;24.90;49.70
58409;DHT22;44202;52.730;6.470;2022-09-01T14:35:06;25.00;49.10
58409;DHT22;44202;52.730;6.470;2022-09-01T14:37:33;25.10;50.10
58409;DHT22;44202;52.730;6.470;2022-09-01T14:39:59;25.20;49.40
58409;DHT22;44202;52.730;6.470;2022-09-01T14:42:25;25.30;48.90
58409;DHT22;44202;52.730;6.470;2022-09-01T14:44:53;25.30;48.20
58409;DHT22;44202;52.730;6.470;2022-09-01T14:47:19;25.30;48.30
58409;DHT22;44202;52.730;6.470;2022-09-01T14:49:48;25.30;48.90
58409;DHT22;44202;52.730;6.470;2022-09-01T14:52:13;25.30;49.40
58409;DHT22;44202;52.730;6.470;2022-09-01T14:54:41;25.50;49.40
58409;DHT22;44202;52.730;6.470;2022-09-01T14:57:08;25.60;48.70
58409;DHT22;44202;52.730;6.470;2022-09-01T14:59:34;25.80;48.40
58409;DHT22;44202;52.730;6.470;2022-09-01T15:02:00;26.00;49.20
58409;DHT22;44202;52.730;6.470;2022-09-01T15:04:26;25.90;48.10
58409;DHT22;44202;52.730;6.470;2022-09-01T15:06:53;25.60;47.70
58409;DHT22;44202;52.730;6.470;2022-09-01T15:09:19;25.10;47.80
58409;DHT22;44202;52.730;6.470;2022-09-01T15:11:45;24.70;49.20
58409;DHT22;44202;52.730;6.470;2022-09-01T15:14:11;24.50;50.00
58409;DHT22;44202;52.730;6.470;2022-09-01T15:16:37;24.60;51.20
58409;DHT22;44202;52.730;6.470;2022-09-01T15:19:07;25.00;50.80
58409;DHT22;44202;52.730;6.470;2022-09-01T15:21:35;25.30;50.60
58409;DHT22;44202;52.730;6.470;2022-09-01T15:24:02;25.60;49.10
58409;DHT22;44202;52.730;6.470;2022-09-01T15:26:28;25.80;47.40
58409;DHT22;44202;52.730;6.470;2022-09-01T15:28:54;25.90;47.70
58409;DHT22;44202;52.730;6.470;2022-09-01T15:31:22;26.30;47.50
58409;DHT22;44202;52.730;6.470;2022-09-01T15:33:49;26.70;46.70
58409;DHT22;44202;52.730;6.470;2022-09-01T15:36:17;26.90;45.80
58409;DHT22;44202;52.730;6.470;2022-09-01T15:38:43;27.10;45.30
58409;DHT22;44202;52.730;6.470;2022-09-01T15:41:15;27.40;45.20
58409;DHT22;44202;52.730;6.470;2022-09-01T15:43:41;27.70;44.40
58409;DHT22;44202;52.730;6.470;2022-09-01T15:46:07;27.80;45.00
58409;DHT22;44202;52.730;6.470;2022-09-01T15:48:32;28.00;44.10
58409;DHT22;44202;52.730;6.470;2022-09-01T15:53:54;28.20;42.50
58409;DHT22;44202;52.730;6.470;2022-09-01T15:56:20;28.00;44.00
58409;DHT22;44202;52.730;6.470;2022-09-01T15:58:47;27.50;44.30
58409;DHT22;44202;52.730;6.470;2022-09-01T16:01:14;27.10;45.00
58409;DHT22;44202;52.730;6.470;2022-09-01T16:03:40;27.10;45.40
58409;DHT22;44202;52.730;6.470;2022-09-01T16:06:06;27.20;45.40
58409;DHT22;44202;52.730;6.470;2022-09-01T16:08:32;27.40;46.90
58409;DHT22;44202;52.730;6.470;2022-09-01T16:10:59;27.50;46.40
58409;DHT22;44202;52.730;6.470;2022-09-01T16:13:25;27.60;45.90
58409;DHT22;44202;52.730;6.470;2022-09-01T16:18:51;27.80;43.20
58409;DHT22;44202;52.730;6.470;2022-09-01T16:21:25;27.80;43.10
58409;DHT22;44202;52.730;6.470;2022-09-01T16:23:55;27.70;42.30
58409;DHT22;44202;52.730;6.470;2022-09-01T16:26:33;27.40;42.40
58409;DHT22;44202;52.730;6.470;2022-09-01T16:28:59;26.90;42.90
58409;DHT22;44202;52.730;6.470;2022-09-01T16:31:29;26.60;43.70
58409;DHT22;44202;52.730;6.470;2022-09-01T16:33:58;26.60;43.60
58409;DHT22;44202;52.730;6.470;2022-09-01T16:42:18;27.20;44.10
58409;DHT22;44202;52.730;6.470;2022-09-01T16:51:12;27.90;44.00
58409;DHT22;44202;52.730;6.470;2022-09-01T17:02:35;28.70;40.60
58409;DHT22;44202;52.730;6.470;2022-09-01T17:05:29;28.90;40.00
58409;DHT22;44202;52.730;6.470;2022-09-01T17:08:24;29.10;39.70
58409;DHT22;44202;52.730;6.470;2022-09-01T17:11:07;29.00;38.50
58409;DHT22;44202;52.730;6.470;2022-09-01T17:13:45;28.90;38.90
58409;DHT22;44202;52.730;6.470;2022-09-01T17:18:59;28.60;39.60
58409;DHT22;44202;52.730;6.470;2022-09-01T17:21:47;28.50;39.50
58409;DHT22;44202;52.730;6.470;2022-09-01T17:27:23;27.80;39.80
58409;DHT22;44202;52.730;6.470;2022-09-01T17:29:51;26.80;40.80
58409;DHT22;44202;52.730;6.470;2022-09-01T17:38:38;24.30;43.90
58409;DHT22;44202;52.730;6.470;2022-09-01T17:41:37;23.80;45.10
58409;DHT22;44202;52.730;6.470;2022-09-01T17:44:21;23.30;45.50
58409;DHT22;44202;52.730;6.470;2022-09-01T17:49:31;22.60;47.70
58409;DHT22;44202;52.730;6.470;2022-09-01T17:54:57;22.20;48.00
58409;DHT22;44202;52.730;6.470;2022-09-01T18:05:43;21.50;49.70